sensor_id;sensor_type;location;lat;lon;timestamp;P1;durP1;ratioP1;P2;durP2;ratioP2
21567;SDS011;10944;42.590;12.630;2022-08-20T00:00:31;8.32;;;5.80;;
21567;SDS011;10944;42.590;12.630;2022-08-20T00:03:04;13.73;;;5.55;;
21567;SDS011;10944;42.590;12.630;2022-08-20T00:05:40;14.30;;;6.43;;
21567;SDS011;10944;42.590;12.630;2022-08-20T00:08:08;13.93;;;6.05;;
21567;SDS011;10944;42.590;12.630;2022-08-20T00:10:37;9.68;;;6.20;;
21567;SDS011;10944;42.590;12.630;2022-08-20T00:13:05;12.13;;;6.53;;
21567;SDS011;10944;42.590;12.630;2022-08-20T00:15:34;11.52;;;6.63;;
21567;SDS011;10944;42.590;12.630;2022-08-20T00:18:02;12.45;;;6.75;;
21567;SDS011;10944;42.590;12.630;2022-08-20T00:20:30;12.85;;;6.22;;
21567;SDS011;10944;42.590;12.630;2022-08-20T00:23:02;10.27;;;6.60;;
21567;SDS011;10944;42.590;12.630;2022-08-20T00:25:28;11.35;;;6.05;;
21567;SDS011;10944;42.590;12.630;2022-08-20T00:27:54;9.30;;;6.00;;
21567;SDS011;10944;42.590;12.630;2022-08-20T00:30:21;9.00;;;5.85;;
21567;SDS011;10944;42.590;12.630;2022-08-20T00:32:55;10.55;;;6.30;;
21567;SDS011;10944;42.590;12.630;2022-08-20T00:35:24;11.23;;;6.13;;
21567;SDS011;10944;42.590;12.630;2022-08-20T00:37:53;9.98;;;5.80;;
21567;SDS011;10944;42.590;12.630;2022-08-20T00:40:21;11.95;;;6.20;;
21567;SDS011;10944;42.590;12.630;2022-08-20T00:42:51;9.38;;;6.05;;
21567;SDS011;10944;42.590;12.630;2022-08-20T00:45:22;11.63;;;6.00;;
21567;SDS011;10944;42.590;12.630;2022-08-20T00:47:49;13.50;;;6.00;;
21567;SDS011;10944;42.590;12.630;2022-08-20T00:50:18;9.88;;;5.88;;
21567;SDS011;10944;42.590;12.630;2022-08-20T00:52:47;8.60;;;5.78;;
21567;SDS011;10944;42.590;12.630;2022-08-20T00:55:16;11.65;;;6.10;;
21567;SDS011;10944;42.590;12.630;2022-08-20T00:57:45;12.40;;;5.43;;
21567;SDS011;10944;42.590;12.630;2022-08-20T01:00:19;12.18;;;5.90;;
21567;SDS011;10944;42.590;12.630;2022-08-20T01:02:47;10.40;;;5.70;;
21567;SDS011;10944;42.590;12.630;2022-08-20T01:05:14;7.93;;;5.60;;
21567;SDS011;10944;42.590;12.630;2022-08-20T01:07:41;9.23;;;5.25;;
21567;SDS011;10944;42.590;12.630;2022-08-20T01:10:15;10.35;;;5.32;;
21567;SDS011;10944;42.590;12.630;2022-08-20T01:12:45;8.63;;;5.72;;
21567;SDS011;10944;42.590;12.630;2022-08-20T01:15:13;7.95;;;5.05;;
21567;SDS011;10944;42.590;12.630;2022-08-20T01:17:45;7.43;;;5.10;;
21567;SDS011;10944;42.590;12.630;2022-08-20T01:26:13;9.63;;;4.95;;
21567;SDS011;10944;42.590;12.630;2022-08-20T01:28:52;10.65;;;5.32;;
21567;SDS011;10944;42.590;12.630;2022-08-20T01:31:25;11.60;;;5.68;;
21567;SDS011;10944;42.590;12.630;2022-08-20T01:33:54;8.75;;;5.53;;
21567;SDS011;10944;42.590;12.630;2022-08-20T01:36:22;8.00;;;5.45;;
21567;SDS011;10944;42.590;12.630;2022-08-20T01:38:50;14.98;;;6.13;;
21567;SDS011;10944;42.590;12.630;2022-08-20T01:44:27;13.10;;;6.18;;
21567;SDS011;10944;42.590;12.630;2022-08-20T01:46:53;9.55;;;6.03;;
21567;SDS011;10944;42.590;12.630;2022-08-20T01:49:24;11.73;;;6.18;;
21567;SDS011;10944;42.590;12.630;2022-08-20T01:51:54;8.73;;;6.18;;
21567;SDS011;10944;42.590;12.630;2022-08-20T01:54:23;15.90;;;6.38;;
21567;SDS011;10944;42.590;12.630;2022-08-20T01:57:35;14.18;;;6.35;;
21567;SDS011;10944;42.590;12.630;2022-08-20T01:59:38;13.52;;;8.38;;
21567;SDS011;10944;42.590;12.630;2022-08-20T02:02:04;17.92;;;8.68;;
21567;SDS011;10944;42.590;12.630;2022-08-20T02:04:31;14.05;;;8.35;;
21567;SDS011;10944;42.590;12.630;2022-08-20T02:06:59;14.32;;;8.30;;
21567;SDS011;10944;42.590;12.630;2022-08-20T02:09:27;12.55;;;8.20;;
21567;SDS011;10944;42.590;12.630;2022-08-20T02:11:56;10.82;;;8.23;;
21567;SDS011;10944;42.590;12.630;2022-08-20T02:14:23;12.95;;;8.65;;
21567;SDS011;10944;42.590;12.630;2022-08-20T02:16:50;16.88;;;8.88;;
21567;SDS011;10944;42.590;12.630;2022-08-20T02:19:50;11.27;;;8.05;;
21567;SDS011;10944;42.590;12.630;2022-08-20T02:22:20;14.15;;;8.57;;
21567;SDS011;10944;42.590;12.630;2022-08-20T02:24:52;14.48;;;9.00;;
21567;SDS011;10944;42.590;12.630;2022-08-20T02:27:18;12.10;;;8.43;;
21567;SDS011;10944;42.590;12.630;2022-08-20T02:29:45;11.73;;;8.32;;
21567;SDS011;10944;42.590;12.630;2022-08-20T02:32:11;13.25;;;7.53;;
21567;SDS011;10944;42.590;12.630;2022-08-20T02:34:37;11.55;;;7.47;;
21567;SDS011;10944;42.590;12.630;2022-08-20T02:37:04;15.50;;;7.53;;
21567;SDS011;10944;42.590;12.630;2022-08-20T02:39:30;13.75;;;7.95;;
21567;SDS011;10944;42.590;12.630;2022-08-20T02:41:56;9.88;;;6.75;;
21567;SDS011;10944;42.590;12.630;2022-08-20T02:44:22;13.18;;;7.93;;
21567;SDS011;10944;42.590;12.630;2022-08-20T02:46:48;14.65;;;7.97;;
21567;SDS011;10944;42.590;12.630;2022-08-20T02:49:17;12.63;;;6.90;;
21567;SDS011;10944;42.590;12.630;2022-08-20T02:51:44;11.68;;;6.22;;
21567;SDS011;10944;42.590;12.630;2022-08-20T02:54:11;9.65;;;5.50;;
21567;SDS011;10944;42.590;12.630;2022-08-20T02:56:37;8.13;;;5.30;;
21567;SDS011;10944;42.590;12.630;2022-08-20T02:59:03;11.20;;;5.30;;
21567;SDS011;10944;42.590;12.630;2022-08-20T03:01:29;11.60;;;6.00;;
21567;SDS011;10944;42.590;12.630;2022-08-20T03:03:55;10.35;;;6.10;;
21567;SDS011;10944;42.590;12.630;2022-08-20T03:06:23;9.27;;;6.63;;
21567;SDS011;10944;42.590;12.630;2022-08-20T03:08:49;9.15;;;5.82;;
21567;SDS011;10944;42.590;12.630;2022-08-20T03:11:16;12.73;;;6.88;;
21567;SDS011;10944;42.590;12.630;2022-08-20T03:13:42;12.02;;;7.78;;
21567;SDS011;10944;42.590;12.630;2022-08-20T03:16:08;14.18;;;8.18;;
21567;SDS011;10944;42.590;12.630;2022-08-20T03:18:39;13.57;;;9.02;;
21567;SDS011;10944;42.590;12.630;2022-08-20T03:21:07;16.52;;;10.48;;
21567;SDS011;10944;42.590;12.630;2022-08-20T03:23:33;14.75;;;11.10;;
21567;SDS011;10944;42.590;12.630;2022-08-20T03:26:00;18.75;;;10.23;;
21567;SDS011;10944;42.590;12.630;2022-08-20T03:28:27;15.88;;;9.98;;
21567;SDS011;10944;42.590;12.630;2022-08-20T03:30:53;14.50;;;11.05;;
21567;SDS011;10944;42.590;12.630;2022-08-20T03:33:20;13.15;;;10.40;;
21567;SDS011;10944;42.590;12.630;2022-08-20T03:35:47;15.73;;;10.70;;
21567;SDS011;10944;42.590;12.630;2022-08-20T03:38:13;17.02;;;11.70;;
21567;SDS011;10944;42.590;12.630;2022-08-20T03:40:41;15.75;;;11.52;;
21567;SDS011;10944;42.590;12.630;2022-08-20T03:43:07;17.15;;;10.88;;
21567;SDS011;10944;42.590;12.630;2022-08-20T03:45:34;11.93;;;10.02;;
21567;SDS011;10944;42.590;12.630;2022-08-20T03:48:02;15.02;;;10.82;;
21567;SDS011;10944;42.590;12.630;2022-08-20T03:50:30;21.25;;;12.00;;
21567;SDS011;10944;42.590;12.630;2022-08-20T03:52:56;14.77;;;10.85;;
21567;SDS011;10944;42.590;12.630;2022-08-20T03:55:24;15.55;;;10.98;;
21567;SDS011;10944;42.590;12.630;2022-08-20T03:57:52;14.25;;;10.70;;
21567;SDS011;10944;42.590;12.630;2022-08-20T04:00:25;15.52;;;10.02;;
21567;SDS011;10944;42.590;12.630;2022-08-20T04:02:52;14.77;;;10.13;;
21567;SDS011;10944;42.590;12.630;2022-08-20T04:05:21;12.57;;;10.23;;
21567;SDS011;10944;42.590;12.630;2022-08-20T04:07:48;16.42;;;10.57;;
21567;SDS011;10944;42.590;12.630;2022-08-20T04:10:15;16.42;;;10.32;;
21567;SDS011;10944;42.590;12.630;2022-08-20T04:12:40;15.15;;;10.60;;
21567;SDS011;10944;42.590;12.630;2022-08-20T04:15:10;15.93;;;10.60;;
21567;SDS011;10944;42.590;12.630;2022-08-20T04:17:40;13.80;;;10.20;;
21567;SDS011;10944;42.590;12.630;2022-08-20T04:20:11;15.25;;;10.52;;
21567;SDS011;10944;42.590;12.630;2022-08-20T04:22:43;13.23;;;10.35;;
21567;SDS011;10944;42.590;12.630;2022-08-20T04:25:11;14.77;;;10.00;;
21567;SDS011;10944;42.590;12.630;2022-08-20T04:27:38;16.00;;;10.25;;
21567;SDS011;10944;42.590;12.630;2022-08-20T04:30:05;16.30;;;10.98;;
21567;SDS011;10944;42.590;12.630;2022-08-20T04:32:32;17.10;;;12.95;;
21567;SDS011;10944;42.590;12.630;2022-08-20T04:35:01;29.67;;;13.20;;
21567;SDS011;10944;42.590;12.630;2022-08-20T04:37:31;18.10;;;12.32;;
21567;SDS011;10944;42.590;12.630;2022-08-20T04:40:01;23.05;;;9.48;;
21567;SDS011;10944;42.590;12.630;2022-08-20T04:42:48;20.73;;;9.30;;
21567;SDS011;10944;42.590;12.630;2022-08-20T04:45:14;10.57;;;6.90;;
21567;SDS011;10944;42.590;12.630;2022-08-20T04:47:39;12.68;;;5.72;;
21567;SDS011;10944;42.590;12.630;2022-08-20T04:50:09;9.52;;;4.18;;
21567;SDS011;10944;42.590;12.630;2022-08-20T04:52:36;6.40;;;3.78;;
21567;SDS011;10944;42.590;12.630;2022-08-20T04:55:02;5.95;;;3.20;;
21567;SDS011;10944;42.590;12.630;2022-08-20T04:57:29;6.50;;;3.67;;
21567;SDS011;10944;42.590;12.630;2022-08-20T04:59:55;6.57;;;3.50;;
21567;SDS011;10944;42.590;12.630;2022-08-20T05:02:21;6.60;;;3.90;;
21567;SDS011;10944;42.590;12.630;2022-08-20T05:04:46;8.40;;;4.22;;
21567;SDS011;10944;42.590;12.630;2022-08-20T05:07:18;7.55;;;3.63;;
21567;SDS011;10944;42.590;12.630;2022-08-20T05:09:44;7.75;;;4.22;;
21567;SDS011;10944;42.590;12.630;2022-08-20T05:12:10;7.78;;;4.70;;
21567;SDS011;10944;42.590;12.630;2022-08-20T05:14:39;7.22;;;4.57;;
21567;SDS011;10944;42.590;12.630;2022-08-20T05:17:05;9.27;;;4.68;;
21567;SDS011;10944;42.590;12.630;2022-08-20T05:19:32;10.48;;;5.47;;
21567;SDS011;10944;42.590;12.630;2022-08-20T05:22:00;7.25;;;3.78;;
21567;SDS011;10944;42.590;12.630;2022-08-20T05:24:25;6.65;;;3.97;;
21567;SDS011;10944;42.590;12.630;2022-08-20T05:26:51;6.22;;;4.05;;
21567;SDS011;10944;42.590;12.630;2022-08-20T05:29:19;9.35;;;4.32;;
21567;SDS011;10944;42.590;12.630;2022-08-20T05:31:46;8.70;;;5.53;;
21567;SDS011;10944;42.590;12.630;2022-08-20T05:34:13;10.63;;;4.60;;
21567;SDS011;10944;42.590;12.630;2022-08-20T05:36:40;6.75;;;4.70;;
21567;SDS011;10944;42.590;12.630;2022-08-20T05:39:09;6.32;;;4.63;;
21567;SDS011;10944;42.590;12.630;2022-08-20T05:41:36;9.48;;;4.15;;
21567;SDS011;10944;42.590;12.630;2022-08-20T05:44:02;7.68;;;4.30;;
21567;SDS011;10944;42.590;12.630;2022-08-20T05:46:29;7.20;;;4.18;;
21567;SDS011;10944;42.590;12.630;2022-08-20T05:48:55;9.80;;;4.15;;
21567;SDS011;10944;42.590;12.630;2022-08-20T05:51:21;9.57;;;4.40;;
21567;SDS011;10944;42.590;12.630;2022-08-20T05:53:47;8.98;;;4.70;;
21567;SDS011;10944;42.590;12.630;2022-08-20T05:56:13;8.55;;;4.82;;
21567;SDS011;10944;42.590;12.630;2022-08-20T05:58:39;8.20;;;4.13;;
21567;SDS011;10944;42.590;12.630;2022-08-20T06:01:05;8.70;;;5.13;;
21567;SDS011;10944;42.590;12.630;2022-08-20T06:03:30;9.30;;;4.50;;
21567;SDS011;10944;42.590;12.630;2022-08-20T06:06:15;7.95;;;4.10;;
21567;SDS011;10944;42.590;12.630;2022-08-20T06:08:40;6.18;;;3.75;;
21567;SDS011;10944;42.590;12.630;2022-08-20T06:11:06;7.72;;;4.45;;
21567;SDS011;10944;42.590;12.630;2022-08-20T06:13:32;7.53;;;4.10;;
21567;SDS011;10944;42.590;12.630;2022-08-20T06:15:58;7.75;;;4.28;;
21567;SDS011;10944;42.590;12.630;2022-08-20T06:18:24;6.07;;;4.13;;
21567;SDS011;10944;42.590;12.630;2022-08-20T06:20:50;9.02;;;4.20;;
21567;SDS011;10944;42.590;12.630;2022-08-20T06:23:16;6.28;;;4.30;;
21567;SDS011;10944;42.590;12.630;2022-08-20T06:25:43;9.35;;;4.28;;
21567;SDS011;10944;42.590;12.630;2022-08-20T06:28:09;5.93;;;4.00;;
21567;SDS011;10944;42.590;12.630;2022-08-20T06:30:34;8.27;;;4.57;;
21567;SDS011;10944;42.590;12.630;2022-08-20T06:33:00;8.75;;;4.47;;
21567;SDS011;10944;42.590;12.630;2022-08-20T06:35:26;9.23;;;4.20;;
21567;SDS011;10944;42.590;12.630;2022-08-20T06:37:52;8.35;;;3.78;;
21567;SDS011;10944;42.590;12.630;2022-08-20T06:40:19;6.18;;;3.80;;
21567;SDS011;10944;42.590;12.630;2022-08-20T06:42:50;8.32;;;3.85;;
21567;SDS011;10944;42.590;12.630;2022-08-20T06:45:18;5.97;;;4.07;;
21567;SDS011;10944;42.590;12.630;2022-08-20T06:47:46;7.35;;;4.57;;
21567;SDS011;10944;42.590;12.630;2022-08-20T06:50:15;9.27;;;3.97;;
21567;SDS011;10944;42.590;12.630;2022-08-20T06:52:43;7.57;;;4.10;;
21567;SDS011;10944;42.590;12.630;2022-08-20T06:55:11;6.82;;;3.97;;
21567;SDS011;10944;42.590;12.630;2022-08-20T06:57:37;6.80;;;3.50;;
21567;SDS011;10944;42.590;12.630;2022-08-20T07:00:05;9.73;;;3.58;;
21567;SDS011;10944;42.590;12.630;2022-08-20T07:02:35;7.03;;;3.67;;
21567;SDS011;10944;42.590;12.630;2022-08-20T07:05:02;6.70;;;3.25;;
21567;SDS011;10944;42.590;12.630;2022-08-20T07:07:29;6.13;;;3.05;;
21567;SDS011;10944;42.590;12.630;2022-08-20T07:09:58;7.57;;;3.60;;
21567;SDS011;10944;42.590;12.630;2022-08-20T07:12:25;9.50;;;5.78;;
21567;SDS011;10944;42.590;12.630;2022-08-20T07:14:51;10.45;;;7.03;;
21567;SDS011;10944;42.590;12.630;2022-08-20T07:17:17;10.52;;;6.68;;
21567;SDS011;10944;42.590;12.630;2022-08-20T07:19:42;12.63;;;6.80;;
21567;SDS011;10944;42.590;12.630;2022-08-20T07:22:08;8.40;;;6.40;;
21567;SDS011;10944;42.590;12.630;2022-08-20T07:24:36;13.32;;;6.32;;
21567;SDS011;10944;42.590;12.630;2022-08-20T07:27:02;8.98;;;6.03;;
21567;SDS011;10944;42.590;12.630;2022-08-20T07:29:28;9.05;;;6.13;;
21567;SDS011;10944;42.590;12.630;2022-08-20T07:32:14;8.02;;;4.85;;
21567;SDS011;10944;42.590;12.630;2022-08-20T07:34:58;9.25;;;5.10;;
21567;SDS011;10944;42.590;12.630;2022-08-20T07:37:24;7.50;;;4.80;;
21567;SDS011;10944;42.590;12.630;2022-08-20T07:39:50;7.63;;;4.97;;
21567;SDS011;10944;42.590;12.630;2022-08-20T07:42:17;9.75;;;4.57;;
21567;SDS011;10944;42.590;12.630;2022-08-20T07:44:42;9.57;;;5.50;;
21567;SDS011;10944;42.590;12.630;2022-08-20T07:47:08;7.75;;;5.13;;
21567;SDS011;10944;42.590;12.630;2022-08-20T07:49:37;11.65;;;6.13;;
21567;SDS011;10944;42.590;12.630;2022-08-20T07:52:04;10.32;;;5.85;;
21567;SDS011;10944;42.590;12.630;2022-08-20T07:54:30;7.70;;;4.80;;
21567;SDS011;10944;42.590;12.630;2022-08-20T07:56:59;7.95;;;4.60;;
21567;SDS011;10944;42.590;12.630;2022-08-20T07:59:28;6.15;;;4.22;;
21567;SDS011;10944;42.590;12.630;2022-08-20T08:01:55;7.88;;;4.72;;
21567;SDS011;10944;42.590;12.630;2022-08-20T08:04:21;7.90;;;4.38;;
21567;SDS011;10944;42.590;12.630;2022-08-20T08:06:48;5.43;;;4.13;;
21567;SDS011;10944;42.590;12.630;2022-08-20T08:09:15;6.50;;;4.38;;
21567;SDS011;10944;42.590;12.630;2022-08-20T08:11:42;5.82;;;4.03;;
21567;SDS011;10944;42.590;12.630;2022-08-20T08:14:19;7.95;;;4.60;;
21567;SDS011;10944;42.590;12.630;2022-08-20T08:16:48;7.07;;;4.88;;
21567;SDS011;10944;42.590;12.630;2022-08-20T08:19:16;7.65;;;5.20;;
21567;SDS011;10944;42.590;12.630;2022-08-20T08:21:43;8.93;;;4.90;;
21567;SDS011;10944;42.590;12.630;2022-08-20T08:24:09;5.18;;;3.95;;
21567;SDS011;10944;42.590;12.630;2022-08-20T08:26:35;7.93;;;4.53;;
21567;SDS011;10944;42.590;12.630;2022-08-20T08:29:02;6.85;;;4.20;;
21567;SDS011;10944;42.590;12.630;2022-08-20T08:31:31;6.22;;;4.28;;
21567;SDS011;10944;42.590;12.630;2022-08-20T08:33:58;7.15;;;4.88;;
21567;SDS011;10944;42.590;12.630;2022-08-20T08:36:24;9.18;;;5.07;;
21567;SDS011;10944;42.590;12.630;2022-08-20T08:38:51;7.93;;;5.25;;
21567;SDS011;10944;42.590;12.630;2022-08-20T08:41:33;8.55;;;4.68;;
21567;SDS011;10944;42.590;12.630;2022-08-20T08:44:21;9.10;;;4.72;;
21567;SDS011;10944;42.590;12.630;2022-08-20T08:47:07;10.98;;;4.45;;
21567;SDS011;10944;42.590;12.630;2022-08-20T08:49:42;9.30;;;4.43;;
21567;SDS011;10944;42.590;12.630;2022-08-20T08:52:11;10.07;;;5.45;;
21567;SDS011;10944;42.590;12.630;2022-08-20T08:54:48;11.65;;;4.97;;
21567;SDS011;10944;42.590;12.630;2022-08-20T08:57:16;6.35;;;4.60;;
21567;SDS011;10944;42.590;12.630;2022-08-20T08:59:47;8.80;;;4.60;;
21567;SDS011;10944;42.590;12.630;2022-08-20T09:02:25;9.10;;;4.78;;
21567;SDS011;10944;42.590;12.630;2022-08-20T09:04:55;5.43;;;3.92;;
21567;SDS011;10944;42.590;12.630;2022-08-20T09:07:25;4.75;;;3.35;;
21567;SDS011;10944;42.590;12.630;2022-08-20T09:09:56;7.22;;;3.83;;
21567;SDS011;10944;42.590;12.630;2022-08-20T09:12:22;6.78;;;4.53;;
21567;SDS011;10944;42.590;12.630;2022-08-20T09:14:51;6.20;;;4.00;;
21567;SDS011;10944;42.590;12.630;2022-08-20T09:17:18;6.15;;;3.80;;
21567;SDS011;10944;42.590;12.630;2022-08-20T09:19:45;5.40;;;3.45;;
21567;SDS011;10944;42.590;12.630;2022-08-20T09:22:13;6.15;;;3.95;;
21567;SDS011;10944;42.590;12.630;2022-08-20T09:24:40;5.07;;;3.50;;
21567;SDS011;10944;42.590;12.630;2022-08-20T09:27:07;6.68;;;3.97;;
21567;SDS011;10944;42.590;12.630;2022-08-20T09:29:33;7.80;;;3.60;;
21567;SDS011;10944;42.590;12.630;2022-08-20T09:32:03;6.03;;;3.30;;
21567;SDS011;10944;42.590;12.630;2022-08-20T09:34:40;5.18;;;2.75;;
21567;SDS011;10944;42.590;12.630;2022-08-20T09:37:08;3.90;;;2.60;;
21567;SDS011;10944;42.590;12.630;2022-08-20T09:39:34;4.30;;;2.20;;
21567;SDS011;10944;42.590;12.630;2022-08-20T09:44:40;4.75;;;2.45;;
21567;SDS011;10944;42.590;12.630;2022-08-20T09:47:07;4.32;;;2.40;;
21567;SDS011;10944;42.590;12.630;2022-08-20T09:49:33;5.68;;;2.33;;
21567;SDS011;10944;42.590;12.630;2022-08-20T09:52:01;3.40;;;2.03;;
21567;SDS011;10944;42.590;12.630;2022-08-20T09:54:28;4.43;;;2.25;;
21567;SDS011;10944;42.590;12.630;2022-08-20T09:56:57;4.20;;;2.20;;
21567;SDS011;10944;42.590;12.630;2022-08-20T09:59:26;4.93;;;2.28;;
21567;SDS011;10944;42.590;12.630;2022-08-20T10:01:53;5.10;;;2.10;;
21567;SDS011;10944;42.590;12.630;2022-08-20T10:04:18;3.80;;;2.20;;
21567;SDS011;10944;42.590;12.630;2022-08-20T10:06:44;3.92;;;2.30;;
21567;SDS011;10944;42.590;12.630;2022-08-20T10:09:10;3.85;;;2.00;;
21567;SDS011;10944;42.590;12.630;2022-08-20T10:11:36;4.57;;;2.25;;
21567;SDS011;10944;42.590;12.630;2022-08-20T10:14:02;4.10;;;1.92;;
21567;SDS011;10944;42.590;12.630;2022-08-20T10:16:28;5.55;;;2.08;;
21567;SDS011;10944;42.590;12.630;2022-08-20T10:18:54;4.40;;;2.05;;
21567;SDS011;10944;42.590;12.630;2022-08-20T10:21:20;3.85;;;1.90;;
21567;SDS011;10944;42.590;12.630;2022-08-20T10:23:46;5.07;;;1.95;;
21567;SDS011;10944;42.590;12.630;2022-08-20T10:26:12;3.80;;;2.00;;
21567;SDS011;10944;42.590;12.630;2022-08-20T10:28:39;3.53;;;2.20;;
21567;SDS011;10944;42.590;12.630;2022-08-20T10:31:05;4.95;;;2.05;;
21567;SDS011;10944;42.590;12.630;2022-08-20T10:33:32;4.05;;;2.22;;
21567;SDS011;10944;42.590;12.630;2022-08-20T10:36:04;4.25;;;2.30;;
21567;SDS011;10944;42.590;12.630;2022-08-20T10:38:33;3.67;;;2.03;;
21567;SDS011;10944;42.590;12.630;2022-08-20T10:40:59;5.30;;;1.80;;
21567;SDS011;10944;42.590;12.630;2022-08-20T10:43:25;3.92;;;2.05;;
21567;SDS011;10944;42.590;12.630;2022-08-20T10:45:52;3.47;;;1.70;;
21567;SDS011;10944;42.590;12.630;2022-08-20T10:48:18;4.90;;;1.73;;
21567;SDS011;10944;42.590;12.630;2022-08-20T10:50:43;3.38;;;1.80;;
21567;SDS011;10944;42.590;12.630;2022-08-20T10:53:09;4.22;;;1.80;;
21567;SDS011;10944;42.590;12.630;2022-08-20T10:55:35;3.20;;;1.77;;
21567;SDS011;10944;42.590;12.630;2022-08-20T10:58:03;5.53;;;1.90;;
21567;SDS011;10944;42.590;12.630;2022-08-20T11:00:30;3.53;;;1.60;;
21567;SDS011;10944;42.590;12.630;2022-08-20T11:02:56;3.20;;;1.90;;
21567;SDS011;10944;42.590;12.630;2022-08-20T11:05:21;4.70;;;1.48;;
21567;SDS011;10944;42.590;12.630;2022-08-20T11:07:47;4.15;;;1.73;;
21567;SDS011;10944;42.590;12.630;2022-08-20T11:10:13;3.15;;;1.88;;
21567;SDS011;10944;42.590;12.630;2022-08-20T11:12:39;2.88;;;1.55;;
21567;SDS011;10944;42.590;12.630;2022-08-20T11:15:05;3.67;;;1.90;;
21567;SDS011;10944;42.590;12.630;2022-08-20T11:17:33;3.05;;;1.80;;
21567;SDS011;10944;42.590;12.630;2022-08-20T11:20:00;6.38;;;1.83;;
21567;SDS011;10944;42.590;12.630;2022-08-20T11:22:28;6.68;;;1.98;;
21567;SDS011;10944;42.590;12.630;2022-08-20T11:24:54;2.38;;;1.60;;
21567;SDS011;10944;42.590;12.630;2022-08-20T11:29:49;5.00;;;1.85;;
21567;SDS011;10944;42.590;12.630;2022-08-20T11:32:16;3.42;;;1.52;;
21567;SDS011;10944;42.590;12.630;2022-08-20T11:34:42;4.05;;;1.65;;
21567;SDS011;10944;42.590;12.630;2022-08-20T11:37:08;3.78;;;1.90;;
21567;SDS011;10944;42.590;12.630;2022-08-20T11:39:34;2.55;;;1.60;;
21567;SDS011;10944;42.590;12.630;2022-08-20T11:42:00;2.85;;;1.63;;
21567;SDS011;10944;42.590;12.630;2022-08-20T11:44:26;2.78;;;1.65;;
21567;SDS011;10944;42.590;12.630;2022-08-20T11:46:52;2.30;;;1.55;;
21567;SDS011;10944;42.590;12.630;2022-08-20T11:49:18;4.35;;;1.80;;
21567;SDS011;10944;42.590;12.630;2022-08-20T11:51:43;3.30;;;1.60;;
21567;SDS011;10944;42.590;12.630;2022-08-20T11:54:09;3.30;;;1.70;;
21567;SDS011;10944;42.590;12.630;2022-08-20T11:56:35;2.38;;;1.60;;
21567;SDS011;10944;42.590;12.630;2022-08-20T11:59:00;5.38;;;1.30;;
21567;SDS011;10944;42.590;12.630;2022-08-20T12:01:26;2.63;;;1.95;;
21567;SDS011;10944;42.590;12.630;2022-08-20T12:03:52;5.38;;;1.60;;
21567;SDS011;10944;42.590;12.630;2022-08-20T12:06:17;2.97;;;1.67;;
21567;SDS011;10944;42.590;12.630;2022-08-20T12:08:43;3.05;;;1.40;;
21567;SDS011;10944;42.590;12.630;2022-08-20T12:11:09;2.70;;;1.58;;
21567;SDS011;10944;42.590;12.630;2022-08-20T12:13:35;2.58;;;1.50;;
21567;SDS011;10944;42.590;12.630;2022-08-20T12:16:01;2.47;;;1.48;;
21567;SDS011;10944;42.590;12.630;2022-08-20T12:18:28;3.40;;;1.50;;
21567;SDS011;10944;42.590;12.630;2022-08-20T12:20:55;3.60;;;1.67;;
21567;SDS011;10944;42.590;12.630;2022-08-20T12:23:21;4.45;;;2.08;;
21567;SDS011;10944;42.590;12.630;2022-08-20T12:25:47;2.80;;;1.35;;
21567;SDS011;10944;42.590;12.630;2022-08-20T12:28:13;4.68;;;1.30;;
21567;SDS011;10944;42.590;12.630;2022-08-20T12:30:39;2.60;;;1.27;;
21567;SDS011;10944;42.590;12.630;2022-08-20T12:33:05;2.90;;;1.42;;
21567;SDS011;10944;42.590;12.630;2022-08-20T12:35:31;1.58;;;1.20;;
21567;SDS011;10944;42.590;12.630;2022-08-20T12:37:57;2.33;;;1.30;;
21567;SDS011;10944;42.590;12.630;2022-08-20T12:40:26;3.35;;;1.10;;
21567;SDS011;10944;42.590;12.630;2022-08-20T12:42:52;4.20;;;1.40;;
21567;SDS011;10944;42.590;12.630;2022-08-20T12:45:19;3.50;;;1.33;;
21567;SDS011;10944;42.590;12.630;2022-08-20T12:47:45;2.42;;;1.20;;
21567;SDS011;10944;42.590;12.630;2022-08-20T12:50:13;3.17;;;1.23;;
21567;SDS011;10944;42.590;12.630;2022-08-20T12:52:42;1.88;;;1.10;;
21567;SDS011;10944;42.590;12.630;2022-08-20T12:55:09;3.53;;;1.20;;
21567;SDS011;10944;42.590;12.630;2022-08-20T12:57:39;4.70;;;1.40;;
21567;SDS011;10944;42.590;12.630;2022-08-20T13:00:09;2.33;;;1.08;;
21567;SDS011;10944;42.590;12.630;2022-08-20T13:02:40;2.92;;;1.10;;
21567;SDS011;10944;42.590;12.630;2022-08-20T13:05:06;2.60;;;1.10;;
21567;SDS011;10944;42.590;12.630;2022-08-20T13:07:33;3.65;;;1.10;;
21567;SDS011;10944;42.590;12.630;2022-08-20T13:09:59;2.22;;;1.02;;
21567;SDS011;10944;42.590;12.630;2022-08-20T13:12:25;3.72;;;1.17;;
21567;SDS011;10944;42.590;12.630;2022-08-20T13:14:52;2.20;;;1.10;;
21567;SDS011;10944;42.590;12.630;2022-08-20T13:17:18;3.60;;;1.30;;
21567;SDS011;10944;42.590;12.630;2022-08-20T13:19:44;3.15;;;1.10;;
21567;SDS011;10944;42.590;12.630;2022-08-20T13:22:10;4.18;;;1.30;;
21567;SDS011;10944;42.590;12.630;2022-08-20T13:24:36;6.60;;;1.20;;
21567;SDS011;10944;42.590;12.630;2022-08-20T13:27:03;2.20;;;0.90;;
21567;SDS011;10944;42.590;12.630;2022-08-20T13:29:29;2.90;;;0.98;;
21567;SDS011;10944;42.590;12.630;2022-08-20T13:31:55;3.58;;;1.00;;
21567;SDS011;10944;42.590;12.630;2022-08-20T13:34:21;2.53;;;0.95;;
21567;SDS011;10944;42.590;12.630;2022-08-20T13:36:47;3.58;;;1.30;;
21567;SDS011;10944;42.590;12.630;2022-08-20T13:39:12;4.40;;;1.02;;
21567;SDS011;10944;42.590;12.630;2022-08-20T13:41:38;2.88;;;1.30;;
21567;SDS011;10944;42.590;12.630;2022-08-20T13:44:04;4.28;;;1.17;;
21567;SDS011;10944;42.590;12.630;2022-08-20T13:46:29;3.92;;;1.15;;
21567;SDS011;10944;42.590;12.630;2022-08-20T13:48:55;2.35;;;1.00;;
21567;SDS011;10944;42.590;12.630;2022-08-20T13:51:21;2.58;;;1.00;;
21567;SDS011;10944;42.590;12.630;2022-08-20T13:53:47;2.22;;;1.20;;
21567;SDS011;10944;42.590;12.630;2022-08-20T13:56:12;2.47;;;1.15;;
21567;SDS011;10944;42.590;12.630;2022-08-20T13:58:38;2.55;;;1.00;;
21567;SDS011;10944;42.590;12.630;2022-08-20T14:01:04;2.20;;;0.98;;
21567;SDS011;10944;42.590;12.630;2022-08-20T14:03:29;3.70;;;1.40;;
21567;SDS011;10944;42.590;12.630;2022-08-20T14:05:56;2.47;;;1.17;;
21567;SDS011;10944;42.590;12.630;2022-08-20T14:08:23;3.17;;;1.23;;
21567;SDS011;10944;42.590;12.630;2022-08-20T14:10:49;3.10;;;0.85;;
21567;SDS011;10944;42.590;12.630;2022-08-20T14:13:16;2.28;;;0.90;;
21567;SDS011;10944;42.590;12.630;2022-08-20T14:15:45;2.60;;;1.00;;
21567;SDS011;10944;42.590;12.630;2022-08-20T14:18:11;3.33;;;1.20;;
21567;SDS011;10944;42.590;12.630;2022-08-20T14:20:39;3.70;;;1.38;;
21567;SDS011;10944;42.590;12.630;2022-08-20T14:23:05;4.28;;;1.10;;
21567;SDS011;10944;42.590;12.630;2022-08-20T14:25:31;3.53;;;1.20;;
21567;SDS011;10944;42.590;12.630;2022-08-20T14:27:58;3.00;;;1.35;;
21567;SDS011;10944;42.590;12.630;2022-08-20T14:30:33;3.60;;;1.55;;
21567;SDS011;10944;42.590;12.630;2022-08-20T14:32:58;4.50;;;1.48;;
21567;SDS011;10944;42.590;12.630;2022-08-20T14:35:24;2.30;;;1.30;;
21567;SDS011;10944;42.590;12.630;2022-08-20T14:37:51;3.45;;;1.25;;
21567;SDS011;10944;42.590;12.630;2022-08-20T14:40:18;2.67;;;1.30;;
21567;SDS011;10944;42.590;12.630;2022-08-20T14:42:44;3.55;;;1.45;;
21567;SDS011;10944;42.590;12.630;2022-08-20T14:45:11;3.90;;;1.40;;
21567;SDS011;10944;42.590;12.630;2022-08-20T14:47:42;4.35;;;1.40;;